KGGG/GGG METAR and TAF weather

Enter ICAO airport designator
Station Type Date Time Source
KGGG METAR 2020/07/02 17:53 UTC NOAA

KGGG 021753Z 27004KT 10SM SCT030 32/23 A2997 RMK AO2 SLP141 T03220233 10328 20256 58005


Station Type Date Time Source
KGGG Decoded METAR 2020/07/02 17:53 UTC NOAA

LONGVIEW GREGG COUNTY AIRPORT , TX, United States (KGGG) 32-23N 094-43W 107M
Jul 02, 2020 - 01:53 PM EDT / 2020.07.02 1753 UTC
Wind: from the W (270 degrees) at 5 MPH (4 KT):0
Visibility: 10 mile(s):0
Sky conditions: partly cloudy
Temperature: 90.0 F (32.2 C)
Heat index: 99.1 F (37.3 C):1
Dew Point: 73.9 F (23.3 C)
Relative Humidity: 59%
Pressure (altimeter): 29.97 in. Hg (1014 hPa)
Pressure tendency: 0.01 inches (0.5 hPa) lower than three hours ago
ob: KGGG 021753Z 27004KT 10SM SCT030 32/23 A2997 RMK AO2 SLP141 T03220233 10328 20256 58005
cycle: 18

Station Type Date Time Source
KGGG TAF 2020/07/02 18:22 UTC NOAA

TAF KGGG 021720Z 0218/0318 21005KT P6SM SCT060
FM022100 21005KT P6SM FEW250
FM030000 22005KT P6SM SCT100
FM030600 VRB03KT P6SM FEW250
FM031300 25004KT P6SM BKN250

Example: see airport list